Time;durP1;ratioP1;P1;durP2;ratioP2;P2;SDS_P1;SDS_P2;PMS_P1;PMS_P2;Temp;Humidity;BMP_temperature;BMP_pressure;BME280_temperature;BME280_humidity;BME280_pressure;Samples;Min_cycle;Max_cycle;Signal;HPM_P1;HPM_P2
2021/09/15 05:18:51;;;;;;;;;;;;;;;21.77;46.38;99862.66;5009969;28;1699;-59
2021/09/15 05:21:16;;;;;;;;;;;;;;;21.91;46.32;99863.97;5014592;28;830;-59
2021/09/15 05:23:43;;;;;;;;;;;;;;;22.02;45.71;99864.19;4996814;28;1257;-59
2021/09/15 05:26:10;;;;;;;;;;;;;;;22.13;45.82;99866.47;5014472;28;811;-59
2021/09/15 05:28:37;;;;;;;;;;;;;;;22.31;45.29;99874.00;5014325;28;1968;-59
2021/09/15 05:31:03;;;;;;;;;;;;;;;22.47;44.82;99869.16;4996771;28;875;-59
2021/09/15 05:33:30;;;;;;;;;;;;;;;22.58;44.60;99867.34;5014345;28;803;-59
2021/09/15 05:35:57;;;;;;;;;;;;;;;22.67;44.26;99866.47;5014337;28;862;-59
2021/09/15 05:38:24;;;;;;;;;;;;;;;22.74;44.19;99874.53;5014166;28;885;-59
2021/09/15 05:40:51;;;;;;;;;;;;;;;22.85;44.19;99879.59;5014376;28;802;-59
2021/09/15 05:43:17;;;;;;;;;;;;;;;23.03;43.58;99873.78;5014146;28;814;-59
2021/09/15 05:45:44;;;;;;;;;;;;;;;23.31;43.32;99873.47;5014238;28;870;-59
2021/09/15 05:48:10;;;;;;;;;;;;;;;23.80;42.42;99871.09;5014326;28;1983;-59
2021/09/15 05:50:36;;;;;;;;;;;;;;;24.31;40.90;99880.22;4996389;28;1324;-59
2021/09/15 05:53:03;;;;;;;;;;;;;;;24.51;40.41;99874.53;5013963;28;877;-59
2021/09/15 05:55:30;;;;;;;;;;;;;;;24.72;40.29;99866.00;5013914;28;815;-59
2021/09/15 05:57:57;;;;;;;;;;;;;;;24.89;39.76;99880.31;5013956;28;814;-59
2021/09/15 06:00:24;;;;;;;;;;;;;;;25.00;39.75;99886.03;5013765;28;859;-59
2021/09/15 06:02:51;;;;;;;;;;;;;;;25.03;39.45;99883.00;5013824;28;827;-59
2021/09/15 06:05:18;;;;;;;;;;;;;;;25.15;39.96;99883.09;5013816;28;807;-59
2021/09/15 06:07:45;;;;;;;;;;;;;;;25.39;39.38;99886.41;5013581;28;1890;-59
2021/09/15 06:10:11;;;;;;;;;;;;;;;25.50;38.77;99884.91;5013853;28;811;-59
2021/09/15 06:12:38;;;;;;;;;;;;;;;25.46;38.57;99888.75;5013674;28;815;-59
2021/09/15 06:15:05;;;;;;;;;;;;;;;25.36;39.10;99892.28;5013412;28;819;-59
2021/09/15 06:17:32;;;;;;;;;;;;;;;25.21;39.02;99892.44;5013937;28;1009;-59
2021/09/15 06:19:58;;;;;;;;;;;;;;;25.12;39.22;99887.69;5013339;28;1281;-59
2021/09/15 06:22:25;;;;;;;;;;;;;;;25.13;39.16;99891.28;5013394;28;819;-59
2021/09/15 06:24:54;;;;;;;;;;;;;;;25.21;39.10;99893.19;5013363;28;799;-59
2021/09/15 06:27:21;;;;;;;;;;;;;;;25.57;39.32;99884.44;4995293;28;1293;-59
2021/09/15 06:29:48;;;;;;;;;;;;;;;25.86;38.25;99888.97;5013128;28;1914;-59
2021/09/15 06:32:18;;;;;;;;;;;;;;;26.26;37.37;99890.72;5013241;28;815;-59
2021/09/15 06:34:45;;;;;;;;;;;;;;;26.80;36.31;99891.91;5013305;28;846;-59
2021/09/15 06:37:13;;;;;;;;;;;;;;;27.16;35.30;99889.34;5013099;28;843;-60
2021/09/15 06:39:40;;;;;;;;;;;;;;;27.69;35.29;99896.00;5013058;28;858;-59
2021/09/15 06:42:07;;;;;;;;;;;;;;;28.28;34.06;99894.03;5013073;28;831;-59
2021/09/15 06:44:32;;;;;;;;;;;;;;;29.11;32.94;99891.22;5011696;28;807;-59
2021/09/15 06:46:59;;;;;;;;;;;;;;;29.60;31.51;99899.03;5013110;28;792;-59
2021/09/15 06:49:25;;;;;;;;;;;;;;;29.37;31.96;99887.09;5013046;28;1949;-59
2021/09/15 06:51:52;;;;;;;;;;;;;;;29.46;31.62;99893.19;4995232;28;1427;-59
2021/09/15 06:54:20;;;;;;;;;;;;;;;29.71;31.21;99893.25;5012907;28;811;-59
2021/09/15 06:56:47;;;;;;;;;;;;;;;29.78;30.96;99891.88;5012778;28;862;-59
2021/09/15 06:59:13;;;;;;;;;;;;;;;29.52;31.18;99896.00;5012769;28;859;-59
2021/09/15 07:01:40;;;;;;;;;;;;;;;29.43;31.60;99896.38;5012677;28;819;-59
2021/09/15 07:04:07;;;;;;;;;;;;;;;29.56;31.63;99890.03;5012695;28;815;-59
2021/09/15 07:06:33;;;;;;;;;;;;;;;29.49;31.32;99897.84;5012576;28;917;-59
2021/09/15 07:09:00;;;;;;;;;;;;;;;29.39;31.75;99888.09;5012559;28;1886;-59
2021/09/15 07:11:27;;;;;;;;;;;;;;;29.35;31.96;99892.56;5012575;28;912;-59
2021/09/15 07:13:54;;;;;;;;;;;;;;;29.29;31.96;99892.59;5012394;28;855;-59
2021/09/15 07:19:24;;;;;;;;;;;;;;;29.74;31.30;99892.16;5011771;28;1233;-59
2021/09/15 07:21:51;;;;;;;;;;;;;;;29.85;31.15;99888.41;5012713;28;846;-59
2021/09/15 07:24:18;;;;;;;;;;;;;;;29.97;30.88;99886.22;5012373;28;807;-59
2021/09/15 07:26:44;;;;;;;;;;;;;;;29.95;30.88;99891.69;5012415;28;815;-59
2021/09/15 07:29:24;;;;;;;;;;;;;;;29.98;30.83;99882.84;5012453;28;1973;-59
2021/09/15 07:31:51;;;;;;;;;;;;;;;30.10;30.68;99889.16;5012153;28;877;-59
2021/09/15 07:34:17;;;;;;;;;;;;;;;30.30;30.69;99897.22;5012191;28;799;-59
2021/09/15 07:36:44;;;;;;;;;;;;;;;30.25;30.64;99891.56;5012108;28;855;-59
2021/09/15 07:39:11;;;;;;;;;;;;;;;30.20;30.92;99895.28;5011420;28;870;-59
2021/09/15 07:41:38;;;;;;;;;;;;;;;30.17;30.81;99897.13;5012056;28;838;-59
2021/09/15 07:44:04;;;;;;;;;;;;;;;30.31;31.17;99892.28;5012083;28;879;-59
2021/09/15 07:46:31;;;;;;;;;;;;;;;30.55;29.82;99888.59;5011975;28;791;-59
2021/09/15 07:48:58;;;;;;;;;;;;;;;30.38;30.69;99893.75;5011970;28;1910;-59
2021/09/15 07:51:28;;;;;;;;;;;;;;;30.43;30.70;99888.00;5011946;28;846;-59
2021/09/15 07:53:55;;;;;;;;;;;;;;;30.18;31.29;99892.19;5011951;28;799;-59
2021/09/15 07:56:22;;;;;;;;;;;;;;;30.30;31.15;99882.97;5011902;28;799;-59
2021/09/15 07:58:48;;;;;;;;;;;;;;;30.63;30.44;99892.34;5011991;28;791;-59
2021/09/15 08:01:15;;;;;;;;;;;;;;;30.93;29.77;99888.56;5011842;28;799;-59
2021/09/15 08:03:42;;;;;;;;;;;;;;;30.87;29.30;99880.09;5011780;28;796;-59
2021/09/15 08:09:35;;;;;;;;;;;;;;;30.24;30.72;99890.81;5011714;28;1906;-59
2021/09/15 08:12:01;;;;;;;;;;;;;;;30.32;30.74;99888.13;5011740;28;803;-59
2021/09/15 08:14:28;;;;;;;;;;;;;;;30.54;29.96;99887.06;5011561;28;866;-59
2021/09/15 08:16:54;;;;;;;;;;;;;;;30.80;29.57;99891.34;5011979;28;940;-59
2021/09/15 08:19:22;;;;;;;;;;;;;;;30.97;29.57;99888.25;5002627;28;1254;-59
2021/09/15 08:21:49;;;;;;;;;;;;;;;31.24;29.23;99884.16;5011794;28;806;-59
2021/09/15 08:24:17;;;;;;;;;;;;;;;31.44;29.04;99879.16;5011599;28;835;-59
2021/09/15 08:26:44;;;;;;;;;;;;;;;30.93;29.41;99880.00;5011578;28;846;-59
2021/09/15 08:29:09;;;;;;;;;;;;;;;30.55;30.15;99877.19;5011509;28;1914;-59
2021/09/15 08:31:36;;;;;;;;;;;;;;;30.08;30.32;99883.22;5011841;28;861;-59
2021/09/15 08:34:02;;;;;;;;;;;;;;;29.28;31.82;99888.22;5011539;28;787;-59
2021/09/15 08:36:29;;;;;;;;;;;;;;;28.85;32.34;99878.19;5011573;28;881;-59
2021/09/15 08:38:56;;;;;;;;;;;;;;;28.67;32.59;99895.91;5011494;28;865;-59
2021/09/15 08:41:22;;;;;;;;;;;;;;;28.76;32.64;99886.28;5011648;28;850;-59
2021/09/15 08:43:49;;;;;;;;;;;;;;;29.50;31.55;99885.13;5011432;28;850;-59
2021/09/15 08:46:20;;;;;;;;;;;;;;;30.13;30.24;99876.72;5011635;28;848;-59
2021/09/15 08:48:47;;;;;;;;;;;;;;;30.81;29.33;99873.69;5011427;28;1947;-59
2021/09/15 08:51:22;;;;;;;;;;;;;;;30.66;29.81;99877.03;5014281;28;874;-59
2021/09/15 08:53:49;;;;;;;;;;;;;;;31.06;29.46;99877.19;5013821;28;1407;-59
2021/09/15 08:56:16;;;;;;;;;;;;;;;31.59;29.06;99879.38;5013775;28;1383;-59
2021/09/15 08:58:43;;;;;;;;;;;;;;;31.66;28.78;99881.59;5015186;28;798;-59
2021/09/15 09:01:09;;;;;;;;;;;;;;;31.46;28.48;99885.84;5015329;28;878;-59
2021/09/15 09:03:37;;;;;;;;;;;;;;;31.35;28.84;99871.75;5014999;28;881;-59
2021/09/15 09:06:13;;;;;;;;;;;;;;;31.35;28.63;99874.63;5014910;28;905;-61
2021/09/15 09:08:41;;;;;;;;;;;;;;;31.14;28.38;99872.38;5014754;28;1890;-59
2021/09/15 09:11:09;;;;;;;;;;;;;;;30.95;28.21;99870.91;5014871;28;905;-59
2021/09/15 09:13:46;;;;;;;;;;;;;;;30.56;29.26;99866.56;5014872;28;799;-59
2021/09/15 09:16:12;;;;;;;;;;;;;;;29.73;29.92;99869.94;5014889;28;1053;-59
2021/09/15 09:18:58;;;;;;;;;;;;;;;29.84;29.79;99873.41;5013021;28;1214;-59
2021/09/15 09:21:29;;;;;;;;;;;;;;;29.15;30.84;99870.97;5014635;28;803;-59
2021/09/15 09:23:57;;;;;;;;;;;;;;;29.40;30.97;99863.25;5014506;28;807;-59
2021/09/15 09:26:43;;;;;;;;;;;;;;;30.07;29.87;99859.66;5015173;28;759;-59
2021/09/15 09:29:15;;;;;;;;;;;;;;;30.78;29.24;99863.34;5014615;28;2005;-59
2021/09/15 09:31:53;;;;;;;;;;;;;;;30.92;28.60;99858.50;5014282;28;923;-59
2021/09/15 09:34:20;;;;;;;;;;;;;;;30.88;28.27;99853.09;5014455;28;799;-59
2021/09/15 09:37:03;;;;;;;;;;;;;;;30.83;28.72;99853.16;5014624;28;909;-60
2021/09/15 09:39:42;;;;;;;;;;;;;;;30.21;28.84;99863.34;5014295;28;867;-59
2021/09/15 09:42:31;;;;;;;;;;;;;;;29.60;29.95;99844.94;5014933;28;763;-59
2021/09/15 09:45:06;;;;;;;;;;;;;;;28.65;31.62;99862.28;5014328;28;900;-59
2021/09/15 09:47:34;;;;;;;;;;;;;;;28.50;32.32;99853.34;5014176;28;916;-59
2021/09/15 09:50:03;;;;;;;;;;;;;;;28.41;32.29;99851.56;5012710;28;1894;-59
2021/09/15 09:52:31;;;;;;;;;;;;;;;28.71;32.14;99845.97;5014026;28;854;-59
2021/09/15 09:55:01;;;;;;;;;;;;;;;29.25;31.16;99840.88;5013986;28;878;-59
2021/09/15 09:57:28;;;;;;;;;;;;;;;30.14;29.97;99844.03;5013934;28;802;-59
2021/09/15 10:02:57;;;;;;;;;;;;;;;28.98;31.04;99849.13;5013018;28;625;-59
2021/09/15 10:05:24;;;;;;;;;;;;;;;28.44;31.56;99850.53;5013784;28;839;-59
2021/09/15 10:07:51;;;;;;;;;;;;;;;29.37;30.86;99830.94;5013700;28;877;-59
2021/09/15 10:10:19;;;;;;;;;;;;;;;30.60;29.20;99827.84;5013770;28;909;-59
2021/09/15 10:12:46;;;;;;;;;;;;;;;31.12;28.15;99825.72;5013520;28;869;-60
2021/09/15 10:15:12;;;;;;;;;;;;;;;30.21;29.16;99836.94;5013641;28;874;-59
2021/09/15 10:17:41;;;;;;;;;;;;;;;29.26;30.45;99837.50;5014000;28;932;-59
2021/09/15 10:20:08;;;;;;;;;;;;;;;28.82;31.37;99821.59;5013300;28;1193;-59
2021/09/15 10:22:37;;;;;;;;;;;;;;;29.86;30.21;99813.84;5013387;28;913;-60
2021/09/15 10:25:05;;;;;;;;;;;;;;;31.05;28.70;99812.88;5013370;28;882;-59
2021/09/15 10:27:51;;;;;;;;;;;;;;;31.20;28.76;99805.88;5013356;28;854;-60
2021/09/15 10:30:18;;;;;;;;;;;;;;;30.38;29.16;99816.78;5013159;28;1130;-59
2021/09/15 10:32:46;;;;;;;;;;;;;;;29.21;30.41;99809.09;5013218;28;780;-59
2021/09/15 10:35:13;;;;;;;;;;;;;;;28.74;31.29;99809.25;5013392;28;811;-59
2021/09/15 10:37:40;;;;;;;;;;;;;;;29.26;29.86;99794.06;5013130;28;874;-59
2021/09/15 10:40:09;;;;;;;;;;;;;;;30.40;28.93;99797.81;5013105;28;879;-60
2021/09/15 10:42:46;;;;;;;;;;;;;;;31.36;27.77;99804.00;5012960;28;911;-60
2021/09/15 10:45:13;;;;;;;;;;;;;;;31.41;26.99;99792.47;5013014;28;815;-60
2021/09/15 10:47:43;;;;;;;;;;;;;;;31.12;28.20;99795.09;5013106;28;799;-60
2021/09/15 10:50:13;;;;;;;;;;;;;;;31.58;27.72;99785.69;5013050;28;1874;-59
2021/09/15 10:52:43;;;;;;;;;;;;;;;31.50;27.41;99786.34;5012941;28;847;-59
2021/09/15 10:55:26;;;;;;;;;;;;;;;30.92;28.49;99785.06;5012825;28;850;-59
2021/09/15 10:57:52;;;;;;;;;;;;;;;30.38;29.31;99782.56;5012828;28;819;-59
2021/09/15 11:03:41;;;;;;;;;;;;;;;29.61;29.99;99781.75;5012989;28;681;-59
2021/09/15 11:06:08;;;;;;;;;;;;;;;29.30;30.73;99786.00;5012655;28;902;-59
2021/09/15 11:08:35;;;;;;;;;;;;;;;28.92;31.73;99786.59;5012521;28;1894;-60
2021/09/15 11:11:02;;;;;;;;;;;;;;;28.45;33.23;99781.00;5012272;28;791;-59
2021/09/15 11:13:28;;;;;;;;;;;;;;;28.02;33.95;99783.63;5011497;28;838;-59
2021/09/15 11:15:55;;;;;;;;;;;;;;;27.74;33.82;99786.56;5012491;28;1011;-59
2021/09/15 11:18:23;;;;;;;;;;;;;;;27.67;34.04;99780.16;5012203;28;1385;-60
2021/09/15 11:20:54;;;;;;;;;;;;;;;27.92;33.67;99779.53;4994843;28;1319;-59
2021/09/15 11:23:24;;;;;;;;;;;;;;;29.38;31.14;99766.22;5012389;28;795;-59
2021/09/15 11:25:52;;;;;;;;;;;;;;;31.13;28.07;99768.09;5012251;28;1184;-59
2021/09/15 11:28:19;;;;;;;;;;;;;;;32.42;27.16;99760.97;5012305;28;1914;-60
2021/09/15 11:30:52;;;;;;;;;;;;;;;32.95;26.44;99759.94;5012169;28;882;-60
2021/09/15 11:33:32;;;;;;;;;;;;;;;32.56;27.04;99758.81;5012242;28;827;-60
2021/09/15 11:36:03;;;;;;;;;;;;;;;31.67;27.62;99750.97;5012102;28;850;-60
2021/09/15 11:38:31;;;;;;;;;;;;;;;30.37;30.05;99766.78;5012173;28;870;-57
2021/09/15 11:41:06;;;;;;;;;;;;;;;29.42;31.61;99769.56;5011944;28;814;-58
2021/09/15 11:43:32;;;;;;;;;;;;;;;28.75;32.75;99765.31;5012088;28;819;-57
2021/09/15 11:46:00;;;;;;;;;;;;;;;28.28;33.23;99769.75;5012012;28;878;-56
2021/09/15 11:48:27;;;;;;;;;;;;;;;28.05;33.81;99759.84;5012013;28;1894;-57
2021/09/15 11:50:55;;;;;;;;;;;;;;;27.99;34.00;99759.09;5012090;28;831;-57
2021/09/15 11:53:22;;;;;;;;;;;;;;;27.82;34.28;99759.91;5011928;28;1002;-57
2021/09/15 11:55:51;;;;;;;;;;;;;;;27.92;34.09;99751.91;5011923;28;846;-57
2021/09/15 11:58:18;;;;;;;;;;;;;;;27.96;33.06;99740.28;5011946;28;859;-57
2021/09/15 12:00:44;;;;;;;;;;;;;;;27.95;32.96;99739.47;5012226;28;862;-57
2021/09/15 12:03:12;;;;;;;;;;;;;;;28.07;32.49;99743.81;5011928;28;921;-57
2021/09/15 12:05:43;;;;;;;;;;;;;;;28.09;32.44;99729.09;5012490;28;811;-57
2021/09/15 12:08:11;;;;;;;;;;;;;;;28.27;32.85;99733.34;4994151;28;1970;-59
2021/09/15 12:10:37;;;;;;;;;;;;;;;28.83;32.30;99734.97;5011739;28;803;-59
2021/09/15 12:13:04;;;;;;;;;;;;;;;29.35;31.54;99736.78;5011767;28;890;-59
2021/09/15 12:15:52;;;;;;;;;;;;;;;29.43;31.38;99728.41;5011658;28;893;-60
2021/09/15 12:18:22;;;;;;;;;;;;;;;29.53;31.23;99740.94;5011586;28;1269;-60
2021/09/15 12:20:48;;;;;;;;;;;;;;;29.48;31.32;99736.84;4994090;28;1181;-59
2021/09/15 12:23:16;;;;;;;;;;;;;;;28.91;33.22;99745.25;5011782;28;882;-59
2021/09/15 12:25:53;;;;;;;;;;;;;;;28.56;33.77;99748.91;5013897;28;815;-59
2021/09/15 12:28:30;;;;;;;;;;;;;;;28.39;34.80;99746.16;5015540;28;1910;-59
2021/09/15 12:30:58;;;;;;;;;;;;;;;28.12;34.78;99747.13;5015475;28;893;-59
2021/09/15 12:33:28;;;;;;;;;;;;;;;28.13;34.91;99751.53;5015595;28;788;-59
2021/09/15 12:36:10;;;;;;;;;;;;;;;28.53;34.76;99775.56;4997812;28;1307;-59
2021/09/15 12:38:57;;;;;;;;;;;;;;;28.66;38.42;99772.09;5015280;28;853;-59
2021/09/15 12:41:25;;;;;;;;;;;;;;;28.05;42.69;99760.59;5015362;28;799;-59
2021/09/15 12:44:08;;;;;;;;;;;;;;;27.69;44.01;99765.41;5015560;28;823;-59
2021/09/15 12:49:55;;;;;;;;;;;;;;;27.47;43.45;99767.03;5015232;28;1953;-59
2021/09/15 12:52:21;;;;;;;;;;;;;;;27.21;43.69;99763.75;5015170;28;791;-59
2021/09/15 12:54:51;;;;;;;;;;;;;;;27.24;43.32;99757.06;5015206;28;806;-59
2021/09/15 12:57:19;;;;;;;;;;;;;;;27.76;42.78;99758.41;5015108;28;862;-59
2021/09/15 12:59:47;;;;;;;;;;;;;;;28.41;41.40;99748.50;5015062;28;803;-60
2021/09/15 13:02:17;;;;;;;;;;;;;;;28.96;40.05;99749.31;5014984;28;811;-60
2021/09/15 13:04:44;;;;;;;;;;;;;;;28.97;39.70;99739.47;5014983;28;848;-60
2021/09/15 13:07:10;;;;;;;;;;;;;;;28.40;40.44;99741.25;5014894;28;846;-59
2021/09/15 13:09:37;;;;;;;;;;;;;;;28.46;40.37;99745.63;5014676;28;1922;-60
2021/09/15 13:12:04;;;;;;;;;;;;;;;28.13;40.74;99757.22;5014741;28;882;-59
2021/09/15 13:14:30;;;;;;;;;;;;;;;27.60;41.92;99757.19;5014731;28;811;-60
2021/09/15 13:16:57;;;;;;;;;;;;;;;27.00;42.71;99764.03;5015141;28;1029;-59
2021/09/15 13:19:23;;;;;;;;;;;;;;;26.51;44.16;99768.44;5014450;28;1336;-59
2021/09/15 13:21:50;;;;;;;;;;;;;;;26.02;44.97;99775.03;5014589;28;807;-57
2021/09/15 13:24:16;;;;;;;;;;;;;;;25.66;45.54;99774.63;5014734;28;870;-57
2021/09/15 13:26:43;;;;;;;;;;;;;;;25.36;46.25;99781.97;5014671;28;890;-57
2021/09/15 13:29:10;;;;;;;;;;;;;;;25.12;47.20;99785.13;5014444;28;1914;-59
2021/09/15 13:31:37;;;;;;;;;;;;;;;24.89;48.36;99793.44;5014446;28;855;-59
2021/09/15 13:34:04;;;;;;;;;;;;;;;24.57;49.29;99792.66;5014354;28;886;-59
2021/09/15 13:36:30;;;;;;;;;;;;;;;24.40;49.95;99800.97;5013068;28;846;-59
2021/09/15 13:38:57;;;;;;;;;;;;;;;24.32;50.30;99799.84;5014221;28;842;-59
2021/09/15 13:41:23;;;;;;;;;;;;;;;24.29;50.54;99792.38;5014517;28;807;-59
2021/09/15 13:43:50;;;;;;;;;;;;;;;24.21;51.26;99789.22;5014198;28;854;-59
2021/09/15 13:46:17;;;;;;;;;;;;;;;24.11;52.00;99797.06;4996646;28;1364;-59
2021/09/15 13:48:44;;;;;;;;;;;;;;;24.00;52.42;99794.13;5013966;28;1945;-59
2021/09/15 13:51:10;;;;;;;;;;;;;;;23.95;52.59;99797.66;5014126;28;807;-59
2021/09/15 13:53:36;;;;;;;;;;;;;;;23.96;52.55;99807.66;5013999;28;826;-59
2021/09/15 13:56:02;;;;;;;;;;;;;;;23.90;52.70;99818.09;5013963;28;870;-59
2021/09/15 13:58:28;;;;;;;;;;;;;;;23.63;53.58;99822.88;5013908;28;827;-59
2021/09/15 14:00:55;;;;;;;;;;;;;;;23.02;56.18;99826.34;5013872;28;870;-59
2021/09/15 14:03:22;;;;;;;;;;;;;;;22.21;59.91;99825.44;5013865;28;807;-59
2021/09/15 14:05:48;;;;;;;;;;;;;;;21.62;62.69;99825.25;5013696;28;807;-59
2021/09/15 14:08:15;;;;;;;;;;;;;;;21.17;65.01;99824.22;5013860;28;1952;-59
2021/09/15 14:10:42;;;;;;;;;;;;;;;20.81;66.96;99823.09;5013635;28;831;-59
2021/09/15 14:13:09;;;;;;;;;;;;;;;20.54;69.29;99833.09;5013715;28;842;-59
2021/09/15 14:15:38;;;;;;;;;;;;;;;20.29;72.74;99827.84;5013525;28;909;-59
2021/09/15 14:18:05;;;;;;;;;;;;;;;20.11;73.77;99832.22;5013469;28;1084;-59
2021/09/15 14:20:32;;;;;;;;;;;;;;;20.01;74.01;99825.03;5013802;28;854;-59
2021/09/15 14:22:59;;;;;;;;;;;;;;;19.84;74.95;99821.75;5013463;28;917;-59
2021/09/15 14:25:25;;;;;;;;;;;;;;;19.65;76.55;99817.34;5013478;28;850;-59
2021/09/15 14:27:52;;;;;;;;;;;;;;;19.52;77.85;99820.28;5013316;28;858;-59
2021/09/15 14:30:19;;;;;;;;;;;;;;;19.47;78.54;99818.09;5013452;28;1910;-59
2021/09/15 14:32:47;;;;;;;;;;;;;;;19.46;78.97;99819.31;5013449;28;866;-59
2021/09/15 14:35:14;;;;;;;;;;;;;;;19.50;79.47;99817.16;5013317;28;811;-60
2021/09/15 14:37:39;;;;;;;;;;;;;;;19.67;79.45;99821.25;5013108;28;794;-59
2021/09/15 14:40:06;;;;;;;;;;;;;;;19.76;79.55;99829.69;5013192;28;846;-59
2021/09/15 14:42:33;;;;;;;;;;;;;;;19.78;79.86;99832.81;5013101;28;881;-59
2021/09/15 14:45:00;;;;;;;;;;;;;;;19.83;80.21;99831.41;5013109;28;869;-59
2021/09/15 14:47:27;;;;;;;;;;;;;;;19.84;80.02;99835.78;5012715;28;826;-59
2021/09/15 15:02:04;;;;;;;;;;;;;;;19.76;80.74;99837.34;5013376;28;617;-59
2021/09/15 15:04:31;;;;;;;;;;;;;;;19.76;80.33;99838.13;5012953;28;815;-59
2021/09/15 15:06:57;;;;;;;;;;;;;;;19.72;80.25;99842.31;5012911;28;843;-59
2021/09/15 15:09:24;;;;;;;;;;;;;;;19.62;79.84;99840.69;5012701;28;1898;-59
2021/09/15 15:11:50;;;;;;;;;;;;;;;19.57;80.18;99845.69;5013529;28;772;-59
2021/09/15 15:14:17;;;;;;;;;;;;;;;19.58;80.15;99849.25;5013037;28;827;-59
2021/09/15 15:16:44;;;;;;;;;;;;;;;19.66;80.35;99846.94;5012694;28;1059;-59
2021/09/15 15:19:09;;;;;;;;;;;;;;;19.79;80.04;99856.81;5000942;28;1390;-59
2021/09/15 15:21:39;;;;;;;;;;;;;;;19.77;79.70;99850.88;5012450;28;807;-59
2021/09/15 15:24:06;;;;;;;;;;;;;;;19.64;79.71;99855.03;5012388;28;850;-58
2021/09/15 15:26:33;;;;;;;;;;;;;;;19.53;80.08;99847.06;5012953;28;803;-59
2021/09/15 15:29:04;;;;;;;;;;;;;;;19.49;80.23;99838.81;5012778;28;1906;-59
2021/09/15 15:31:31;;;;;;;;;;;;;;;19.49;80.56;99835.22;5012329;28;881;-59
2021/09/15 15:33:57;;;;;;;;;;;;;;;19.52;80.79;99837.88;5012239;28;791;-59
2021/09/15 15:36:24;;;;;;;;;;;;;;;19.54;80.56;99834.59;5012103;28;858;-59
2021/09/15 15:38:51;;;;;;;;;;;;;;;19.49;80.21;99826.81;5012229;28;874;-59
2021/09/15 15:41:18;;;;;;;;;;;;;;;19.43;80.40;99829.44;5012104;28;853;-59
2021/09/15 15:43:44;;;;;;;;;;;;;;;19.37;80.33;99822.88;5012233;28;897;-59
2021/09/15 15:46:11;;;;;;;;;;;;;;;19.33;78.82;99819.44;5012196;28;788;-59
2021/09/15 15:48:38;;;;;;;;;;;;;;;19.29;77.99;99816.81;5012189;28;1882;-59
2021/09/15 15:51:06;;;;;;;;;;;;;;;19.26;78.27;99819.75;5012339;28;855;-59
2021/09/15 15:53:33;;;;;;;;;;;;;;;19.20;77.92;99816.75;5011938;28;941;-59
2021/09/15 15:56:01;;;;;;;;;;;;;;;19.14;77.92;99822.19;5011969;28;807;-59
2021/09/15 15:58:28;;;;;;;;;;;;;;;19.08;77.91;99823.25;5011929;28;810;-59
2021/09/15 16:00:56;;;;;;;;;;;;;;;18.98;77.97;99828.81;5011190;28;787;-59
2021/09/15 16:03:23;;;;;;;;;;;;;;;18.89;77.96;99822.41;5011822;28;909;-59
2021/09/15 16:05:50;;;;;;;;;;;;;;;18.81;78.41;99823.91;5011792;28;779;-59
2021/09/15 16:08:17;;;;;;;;;;;;;;;18.70;79.00;99815.88;5011798;28;1953;-59
2021/09/15 16:10:43;;;;;;;;;;;;;;;18.60;79.32;99820.66;5011777;28;899;-59
2021/09/15 16:13:10;;;;;;;;;;;;;;;18.48;79.73;99816.69;5011775;28;847;-59
2021/09/15 16:15:37;;;;;;;;;;;;;;;18.39;79.77;99825.00;5011938;28;1039;-59
2021/09/15 16:18:03;;;;;;;;;;;;;;;18.34;79.74;99829.19;5011509;28;1235;-59
2021/09/15 16:20:30;;;;;;;;;;;;;;;18.27;79.72;99828.69;5011724;28;875;-59
2021/09/15 16:22:57;;;;;;;;;;;;;;;18.14;79.80;99832.31;5011712;28;874;-59
2021/09/15 16:25:24;;;;;;;;;;;;;;;18.12;79.92;99825.59;5011582;28;861;-59
2021/09/15 16:27:51;;;;;;;;;;;;;;;18.19;79.19;99830.16;5011821;28;878;-59
2021/09/15 16:30:18;;;;;;;;;;;;;;;18.19;78.73;99835.75;5011513;28;1971;-59
2021/09/15 16:32:44;;;;;;;;;;;;;;;18.09;78.63;99829.28;5011534;28;886;-59
2021/09/15 16:35:11;;;;;;;;;;;;;;;17.95;79.08;99828.56;5011674;28;815;-59
2021/09/15 16:37:38;;;;;;;;;;;;;;;17.83;79.37;99832.19;5011540;28;827;-59
2021/09/15 16:40:09;;;;;;;;;;;;;;;17.73;79.69;99828.50;5011864;28;866;-59
2021/09/15 16:42:36;;;;;;;;;;;;;;;17.71;79.64;99830.19;5011635;28;843;-59
2021/09/15 16:45:03;;;;;;;;;;;;;;;17.77;79.40;99831.16;5011696;28;862;-59
2021/09/15 16:47:30;;;;;;;;;;;;;;;17.83;78.66;99837.00;5011449;28;810;-59
2021/09/15 16:49:58;;;;;;;;;;;;;;;17.88;78.30;99839.22;5011391;28;1975;-59
2021/09/15 16:52:24;;;;;;;;;;;;;;;17.87;78.30;99837.66;5011381;28;818;-59
2021/09/15 16:54:50;;;;;;;;;;;;;;;17.81;78.46;99840.19;5011524;28;791;-59
2021/09/15 16:57:17;;;;;;;;;;;;;;;17.76;78.52;99829.59;4993807;28;937;-59
2021/09/15 16:59:43;;;;;;;;;;;;;;;17.76;78.56;99838.00;5011270;28;807;-59
2021/09/15 17:02:10;;;;;;;;;;;;;;;17.72;78.63;99842.91;5011381;28;823;-59
2021/09/15 17:04:37;;;;;;;;;;;;;;;17.68;78.35;99840.25;5011136;28;822;-59
2021/09/15 17:07:03;;;;;;;;;;;;;;;17.65;78.65;99846.75;5011305;28;843;-59
2021/09/15 17:09:30;;;;;;;;;;;;;;;17.58;79.12;99848.97;5011356;28;1942;-59
2021/09/15 17:11:57;;;;;;;;;;;;;;;17.51;79.26;99852.78;5013579;28;850;-59
2021/09/15 17:14:26;;;;;;;;;;;;;;;17.53;79.35;99856.69;5015089;28;815;-59
2021/09/15 17:16:51;;;;;;;;;;;;;;;17.62;79.23;99856.00;5014993;28;1050;-59
2021/09/15 17:19:18;;;;;;;;;;;;;;;17.66;79.10;99856.66;5014455;28;1214;-59
2021/09/15 17:21:45;;;;;;;;;;;;;;;17.61;79.29;99865.63;5014657;28;800;-59
2021/09/15 17:24:11;;;;;;;;;;;;;;;17.59;79.40;99878.50;5014604;28;874;-59
2021/09/15 17:26:38;;;;;;;;;;;;;;;17.51;79.73;99878.72;4997076;28;1201;-59
2021/09/15 17:29:06;;;;;;;;;;;;;;;17.50;79.54;99877.16;5014490;28;1959;-59
2021/09/15 17:31:32;;;;;;;;;;;;;;;17.49;79.66;99872.00;4996846;28;1324;-59
2021/09/15 17:33:58;;;;;;;;;;;;;;;17.44;79.78;99883.75;5014565;28;815;-59
2021/09/15 17:36:26;;;;;;;;;;;;;;;17.46;80.02;99882.09;5014842;28;874;-59
2021/09/15 17:38:52;;;;;;;;;;;;;;;17.42;79.76;99881.41;5014497;28;894;-59
2021/09/15 17:41:19;;;;;;;;;;;;;;;17.33;80.11;99887.66;5014641;28;816;-59
2021/09/15 17:43:46;;;;;;;;;;;;;;;17.26;80.56;99885.13;5014583;28;811;-59
2021/09/15 17:46:13;;;;;;;;;;;;;;;17.22;80.88;99892.00;5014382;28;869;-59
2021/09/15 17:48:40;;;;;;;;;;;;;;;17.18;81.02;99880.97;5014397;28;1943;-59
2021/09/15 17:51:07;;;;;;;;;;;;;;;17.21;81.13;99894.03;5014376;28;834;-59
2021/09/15 17:53:33;;;;;;;;;;;;;;;17.20;80.99;99895.28;5014276;28;886;-59
2021/09/15 17:56:00;;;;;;;;;;;;;;;17.10;80.89;99899.16;5014103;28;847;-59
2021/09/15 17:58:26;;;;;;;;;;;;;;;16.89;81.46;99904.16;5014391;28;832;-59
2021/09/15 18:00:53;;;;;;;;;;;;;;;16.80;81.63;99904.03;5013990;28;848;-59
2021/09/15 18:03:20;;;;;;;;;;;;;;;16.72;82.06;99911.78;5013795;28;867;-59
2021/09/15 18:05:45;;;;;;;;;;;;;;;16.66;82.00;99912.75;5013783;28;795;-58
2021/09/15 18:08:12;;;;;;;;;;;;;;;16.62;82.20;99912.06;5013671;28;1886;-59
2021/09/15 18:10:38;;;;;;;;;;;;;;;16.56;82.33;99908.25;5013716;28;894;-59
2021/09/15 18:13:05;;;;;;;;;;;;;;;16.52;82.51;99913.97;5013673;28;788;-59
2021/09/15 18:15:32;;;;;;;;;;;;;;;16.46;82.55;99915.72;5013754;28;998;-59
2021/09/15 18:17:58;;;;;;;;;;;;;;;16.46;83.00;99918.50;5013565;28;818;-59
2021/09/15 18:20:25;;;;;;;;;;;;;;;16.57;83.06;99918.22;5013325;28;1222;-59
2021/09/15 18:22:52;;;;;;;;;;;;;;;16.66;83.10;99913.56;5012845;28;882;-59
2021/09/15 18:25:19;;;;;;;;;;;;;;;16.63;83.32;99917.22;5013370;28;838;-59
2021/09/15 18:27:46;;;;;;;;;;;;;;;16.61;83.15;99918.91;5013299;28;871;-59
2021/09/15 18:30:13;;;;;;;;;;;;;;;16.56;83.66;99916.63;5013304;28;1977;-59
2021/09/15 18:32:40;;;;;;;;;;;;;;;16.51;83.66;99920.75;5013212;28;905;-59
2021/09/15 18:35:07;;;;;;;;;;;;;;;16.41;83.83;99925.41;5013308;28;882;-59
2021/09/15 18:37:33;;;;;;;;;;;;;;;16.34;83.92;99922.78;5013196;28;847;-59
2021/09/15 18:40:01;;;;;;;;;;;;;;;16.30;84.38;99922.09;5013157;28;870;-58
2021/09/15 18:42:27;;;;;;;;;;;;;;;16.25;84.35;99923.41;5013096;28;823;-58
2021/09/15 18:44:54;;;;;;;;;;;;;;;16.17;84.65;99924.81;5013142;28;866;-58
2021/09/15 18:47:21;;;;;;;;;;;;;;;16.12;84.86;99928.16;5012984;28;866;-58
2021/09/15 18:49:47;;;;;;;;;;;;;;;16.09;85.10;99924.25;5012916;28;1971;-58
2021/09/15 18:52:14;;;;;;;;;;;;;;;16.08;85.23;99917.09;5012964;28;816;-59
2021/09/15 18:54:41;;;;;;;;;;;;;;;16.04;85.17;99926.75;5012879;28;879;-59